Latest METARs, TAFs and NOTAMs for ETSI


---------------------------------------------------------------------------
	(OBSERVATIONS)
ETSI 260442Z 17003KT 9999 SCT150 BKN220 15/13 Q1013 BLU+=
ETSI 260420Z AUTO 08003KT 4600 // ////// 15/13 Q1012 ///=
ETSI 260320Z AUTO 09002KT 3000 // ////// 16/14 Q1012 ///=
ETSI 260220Z AUTO VRB01KT 4600 // ////// 16/14 Q1012 ///=
---------------------------------------------------------------------------
	(FC)
TAF ETSI 251015Z 2511/2520 VRB03KT 9999 NSW FEW040
          PROB30 2511/2518 24010G20KT 5000 SHRA FEW020 BKN030CB
             CANCEL 1100=
---------------------------------------------------------------------------
	(TERMINAL AREA FORECAST)
ETSI 251015Z 2511/2520 VRB03KT    9999 NSW  FEW040
    PROB30 2511/2518 24010G20KT 5000 SHRA FEW020 BKN030CB
    CANCEL 1100=
---------------------------------------------------------------------------
	(NOTAMS)


ETSI E1089/14 SPECIAL ACTIVITY AREA ESTABLISHED FOR GLIDER AEROBATICS
    RADIUS 3NM CENTERED AT 4842N 01132E INGOLSTADT/MANCHING AIRFIELD.
    GND - 6000FT AMSL, SAT-SUN 0700-SS, AUG 15 AND OCT 03 0700-SS,
    27 JUL 07:00 2014 UNTIL 25 OCT 16:07 2014. CREATED: 07 MAY
    08:22 2014

ETSI E1091/14 SPECIAL ACTIVITY AREA ESTABLISHED FOR GLIDER AEROBATICS
    RADIUS 3NM CENTERED AT 4842N 01132E INGOLSTADT/MANCHING AIRFIELD.
    GND - 6000FT AMSL, SAT-SUN 0700-SS, DEC 25 26 0700-SS, 26
    OCT 07:00 2014 UNTIL 28 DEC 15:14 2014. CREATED: 07 MAY 09:44
    2014

ETSI M1232/14 INGOLSTADT NDB IGL 345 OUT OF SERVICE DUE TO MAINTENANCE.
    21 JUL 13:00 2014 UNTIL 28 JUL 15:00 2014. CREATED: 21 JUL
    11:17 2014

ETSI P3206/14 AD ETSI: LVTO-PROCEDURE SUSPENDED. 23 MAY 07:58
    2014 UNTIL 22 AUG 12:00 2014. CREATED: 23 MAY 08:06 2014

ETSI P3207/14 AD ETSI: PAR RWY25R/07L OUT OF SERVICE. 23 MAY
    08:04 2014 UNTIL 22 AUG 12:00 2014. CREATED: 23 MAY 08:08
    2014

ETSI P3210/14 AD ETSI: NO SRA POSSIBLE. 23 MAY 09:02 2014 UNTIL
    22 AUG 12:00 2014. CREATED: 23 MAY 09:06 2014

ETSI P3954/14 AD ETSI: AERODROME NOT USABLE FOR AIRCRAFT WITH
    DANGEROUS GOODS. 24 JUN 15:04 2014 UNTIL 19 SEP 12:00 2014
    ESTIMATED. CREATED: 24 JUN 15:10 2014

ETSI P4404/14 AD ETSI: AERODROME CLOSED EXCEPT CIVIL TRAFFIC,
    FOLLOWING DAYS: 01.,04.,08.,11.,15.,18.,22.,25.,29. AUGUST
    01.,02. SEPTEMBER. 01 AUG 07:00 2014 UNTIL 02 SEP 15:00 2014.
    CREATED: 15 JUL 07:19 2014

ETSI P4408/14 AD ETSI: MIL OPS HOURS TUE-THU DAILY 0700-1400,
    OTHER TIMES CLSD, SEE NOTAM ETCZ P4404/14. , 05 AUG 07:00
    2014 UNTIL 28 AUG 14:00 2014. CREATED: 15 JUL 07:50 2014

ETSI P4417/14 AD ETSI: RWY25R/07L VFR ONLY. 15 JUL 11:10 2014
    UNTIL 10 OCT 12:00 2014. CREATED: 15 JUL 11:14 2014

ETSI P4618/14 AD ETSI: PAR RWY25L/07R OUT OF SERVICE. 25 JUL
    10:01 2014 UNTIL 29 AUG 12:00 2014. CREATED: 25 JUL 10:03
    2014

---------------------------------------------------------------------------